createdAt,value
2022-11-30T00:01:40.333Z,35.75
2022-11-30T00:04:09.453Z,40.08
2022-11-30T00:06:37.915Z,39.60
2022-11-30T00:09:06.374Z,38.40
2022-11-30T00:11:34.944Z,36.25
2022-11-30T00:14:04.922Z,32.63
2022-11-30T00:16:33.441Z,40.67
2022-11-30T00:19:01.920Z,35.15
2022-11-30T00:21:30.420Z,38.53
2022-11-30T00:23:58.889Z,37.95
2022-11-30T00:26:27.634Z,35.72
2022-11-30T00:28:56.936Z,32.65
2022-11-30T00:31:26.832Z,36.75
2022-11-30T00:33:55.350Z,38.42
2022-11-30T00:36:24.448Z,41.38
2022-11-30T00:38:53.404Z,36.42
2022-11-30T00:41:22.370Z,31.33
2022-11-30T00:43:50.979Z,35.33
2022-11-30T00:46:19.589Z,40.03
2022-11-30T00:48:49.854Z,39.70
2022-11-30T00:51:18.571Z,45.92
2022-11-30T00:53:48.289Z,46.80
2022-11-30T00:56:16.912Z,44.50
2022-11-30T00:58:45.631Z,42.13
2022-11-30T01:01:14.318Z,45.92
2022-11-30T01:03:42.896Z,44.10
2022-11-30T01:06:12.802Z,43.83
2022-11-30T01:08:41.404Z,52.75
2022-11-30T01:11:13.452Z,45.28
2022-11-30T01:13:42.368Z,47.17
2022-11-30T01:16:13.796Z,46.10
2022-11-30T01:18:43.307Z,50.03
2022-11-30T01:21:15.210Z,48.58
2022-11-30T01:23:43.844Z,41.63
2022-11-30T01:26:13.102Z,41.05
2022-11-30T01:28:43.987Z,43.38
2022-11-30T01:31:15.031Z,46.95
2022-11-30T01:33:44.118Z,45.65
2022-11-30T01:36:16.206Z,47.40
2022-11-30T01:38:47.229Z,45.17
2022-11-30T01:41:19.536Z,47.33
2022-11-30T01:43:49.571Z,48.80
2022-11-30T01:46:25.520Z,43.95
2022-11-30T01:49:11.667Z,46.55
2022-11-30T01:51:45.210Z,51.70
2022-11-30T01:54:16.386Z,44.38
2022-11-30T01:56:48.105Z,47.20
2022-11-30T01:59:18.043Z,56.20
2022-11-30T02:01:46.840Z,53.80
2022-11-30T02:04:21.478Z,48.25
2022-11-30T02:06:51.580Z,54.65
2022-11-30T02:09:22.997Z,58.92
2022-11-30T02:11:51.869Z,49.75
2022-11-30T02:14:31.825Z,52.17
2022-11-30T02:17:10.928Z,63.05
2022-11-30T02:19:57.707Z,54.58
2022-11-30T02:22:47.211Z,62.38
2022-11-30T02:25:21.600Z,58.65
2022-11-30T02:28:03.539Z,63.65
2022-11-30T02:30:35.992Z,49.03
2022-11-30T02:33:08.502Z,63.63
2022-11-30T02:35:41.936Z,60.08
2022-11-30T02:38:11.817Z,54.63
2022-11-30T02:40:40.298Z,62.47
2022-11-30T02:43:08.822Z,61.92
2022-11-30T02:45:45.664Z,61.60
2022-11-30T02:48:19.480Z,51.38
2022-11-30T02:50:51.952Z,56.97
2022-11-30T02:53:21.142Z,64.57
2022-11-30T02:55:49.714Z,61.45
2022-11-30T02:58:18.854Z,53.63
2022-11-30T03:00:48.708Z,55.67
2022-11-30T03:03:17.274Z,56.08
2022-11-30T03:05:45.884Z,63.67
2022-11-30T03:08:14.430Z,61.22
2022-11-30T03:10:42.954Z,62.58
2022-11-30T03:13:11.575Z,51.08
2022-11-30T03:15:40.211Z,66.10
2022-11-30T03:18:10.088Z,56.47
2022-11-30T03:20:42.377Z,64.13
2022-11-30T03:23:11.457Z,65.30
2022-11-30T03:25:40.078Z,76.38
2022-11-30T03:28:08.622Z,61.17
2022-11-30T03:30:37.282Z,64.43
2022-11-30T03:33:05.759Z,65.93
2022-11-30T03:35:35.564Z,59.20
2022-11-30T03:38:04.080Z,63.60
2022-11-30T03:40:32.634Z,67.93
2022-11-30T03:43:01.137Z,57.20
2022-11-30T03:45:29.597Z,65.55
2022-11-30T03:47:58.351Z,64.20
2022-11-30T03:50:29.175Z,71.95
2022-11-30T03:53:02.142Z,69.63
2022-11-30T03:55:30.646Z,72.35
2022-11-30T03:57:59.170Z,63.85
2022-11-30T04:00:27.682Z,70.63
2022-11-30T04:02:56.218Z,70.57
2022-11-30T04:05:24.844Z,65.28
2022-11-30T04:07:53.464Z,69.03
2022-11-30T04:10:23.859Z,58.20
2022-11-30T04:12:52.358Z,60.72
2022-11-30T04:15:20.862Z,57.90
2022-11-30T04:17:49.647Z,64.95
2022-11-30T04:20:18.335Z,59.67
2022-11-30T04:22:46.829Z,55.65
2022-11-30T04:25:15.340Z,59.55
2022-11-30T04:27:48.088Z,50.70
2022-11-30T04:30:17.297Z,51.58
2022-11-30T04:32:45.910Z,48.30
2022-11-30T04:35:14.679Z,46.75
2022-11-30T04:37:43.754Z,47.47
2022-11-30T04:40:12.995Z,48.25
2022-11-30T04:42:41.567Z,46.13
2022-11-30T04:45:12.780Z,42.78
2022-11-30T04:47:41.575Z,43.97
2022-11-30T04:50:10.754Z,46.47
2022-11-30T04:52:39.268Z,43.85
2022-11-30T04:55:08.561Z,36.80
2022-11-30T04:57:37.020Z,35.15
2022-11-30T05:00:06.372Z,39.28
2022-11-30T05:02:36.251Z,35.25
2022-11-30T05:05:05.197Z,36.22
2022-11-30T05:07:33.779Z,43.47
2022-11-30T05:10:02.379Z,40.65
2022-11-30T05:12:30.891Z,41.05
2022-11-30T05:14:59.423Z,38.17
2022-11-30T05:17:27.964Z,43.58
2022-11-30T05:19:57.764Z,38.10
2022-11-30T05:22:26.233Z,37.30
2022-11-30T05:24:54.732Z,38.08
2022-11-30T05:27:23.272Z,51.67
2022-11-30T05:29:51.751Z,51.10
2022-11-30T05:32:20.390Z,37.85
2022-11-30T05:34:51.657Z,53.83
2022-11-30T05:37:21.754Z,48.42
2022-11-30T05:39:50.278Z,61.47
2022-11-30T05:42:18.844Z,55.72
2022-11-30T05:44:47.835Z,49.97
2022-11-30T05:47:17.325Z,52.15
2022-11-30T05:49:45.845Z,58.17
2022-11-30T05:52:14.325Z,63.03
2022-11-30T05:54:44.278Z,65.15
2022-11-30T05:57:12.868Z,55.03
2022-11-30T05:59:41.368Z,58.85
2022-11-30T06:02:10.049Z,55.53
2022-11-30T06:04:38.609Z,62.40
2022-11-30T06:07:11.628Z,58.15
2022-11-30T06:09:40.492Z,64.82
2022-11-30T06:12:10.484Z,67.05
2022-11-30T06:14:39.082Z,69.82
2022-11-30T06:17:07.684Z,63.53
2022-11-30T06:19:36.220Z,64.35
2022-11-30T06:22:04.939Z,62.72
2022-11-30T06:24:33.425Z,68.10
2022-11-30T06:27:01.905Z,58.97
2022-11-30T06:29:31.759Z,58.65
2022-11-30T06:32:00.287Z,63.17
2022-11-30T06:34:31.207Z,61.97
2022-11-30T06:37:00.002Z,66.90
2022-11-30T06:39:57.740Z,68.82
2022-11-30T06:42:17.030Z,70.32
2022-11-30T06:44:47.140Z,60.03
2022-11-30T06:47:15.826Z,58.53
2022-11-30T06:49:44.303Z,61.90
2022-11-30T06:52:12.877Z,62.08
2022-11-30T06:54:41.423Z,61.88
2022-11-30T06:57:09.921Z,59.55
2022-11-30T06:59:42.195Z,57.03
2022-11-30T07:02:17.964Z,53.10
2022-11-30T07:04:47.548Z,56.90
2022-11-30T07:07:16.268Z,59.38
2022-11-30T07:09:44.872Z,56.72
2022-11-30T07:12:13.439Z,59.22
2022-11-30T07:14:42.164Z,57.00
2022-11-30T07:17:12.098Z,62.00
2022-11-30T07:19:40.761Z,76.68
2022-11-30T07:22:09.294Z,66.60
2022-11-30T07:24:55.188Z,68.07
2022-11-30T07:27:23.913Z,78.55
2022-11-30T07:29:53.014Z,74.35
2022-11-30T07:32:22.872Z,75.85
2022-11-30T07:34:51.586Z,80.65
2022-11-30T07:37:20.319Z,79.63
2022-11-30T07:39:48.856Z,76.45
2022-11-30T07:42:17.699Z,80.85
2022-11-30T07:44:46.663Z,81.72
2022-11-30T07:47:15.653Z,76.57
2022-11-30T07:49:45.720Z,76.25
2022-11-30T07:52:14.359Z,77.75
2022-11-30T07:54:42.860Z,77.38
2022-11-30T07:57:11.374Z,72.00
2022-11-30T07:59:39.902Z,74.28
2022-11-30T08:02:10.719Z,69.40
2022-11-30T08:04:39.361Z,76.32
2022-11-30T08:07:09.399Z,68.93
2022-11-30T08:09:37.961Z,64.90
2022-11-30T08:12:06.984Z,63.20
2022-11-30T08:14:50.665Z,61.30
2022-11-30T08:17:24.105Z,65.78
2022-11-30T08:19:52.766Z,58.33
2022-11-30T08:22:22.685Z,65.50
2022-11-30T08:24:51.508Z,62.75
2022-11-30T08:27:20.123Z,57.55
2022-11-30T08:29:48.759Z,53.33
2022-11-30T08:32:17.412Z,49.63
2022-11-30T08:34:46.538Z,56.03
2022-11-30T08:37:15.401Z,48.63
2022-11-30T08:39:45.416Z,49.55
2022-11-30T08:42:13.939Z,47.55
2022-11-30T08:44:42.460Z,44.63
2022-11-30T08:47:11.080Z,51.00
2022-11-30T08:49:39.664Z,46.42
2022-11-30T08:52:17.517Z,49.33
2022-11-30T08:54:49.106Z,43.25
2022-11-30T08:57:19.356Z,41.95
2022-11-30T08:59:48.140Z,39.50
2022-11-30T09:02:19.196Z,39.55
2022-11-30T09:04:51.018Z,36.97
2022-11-30T09:07:19.911Z,34.00
2022-11-30T09:09:49.854Z,33.67
2022-11-30T09:12:18.523Z,34.17
2022-11-30T09:14:54.014Z,35.33
2022-11-30T09:17:26.282Z,34.13
2022-11-30T09:19:56.041Z,34.03
2022-11-30T09:22:24.658Z,36.08
2022-11-30T09:24:55.907Z,31.33
2022-11-30T09:27:30.145Z,34.65
2022-11-30T09:29:58.711Z,35.05
2022-11-30T09:32:27.284Z,33.67
2022-11-30T09:34:57.268Z,31.67
2022-11-30T09:37:25.829Z,33.72
2022-11-30T09:39:55.848Z,35.75
2022-11-30T09:42:44.254Z,31.55
2022-11-30T09:45:17.707Z,34.58
2022-11-30T09:48:14.347Z,34.78
2022-11-30T09:50:44.834Z,34.83
2022-11-30T09:53:21.162Z,35.55
2022-11-30T09:55:55.294Z,39.13
2022-11-30T09:58:34.796Z,36.20
2022-11-30T10:01:06.890Z,34.25
2022-11-30T10:03:36.149Z,34.63
2022-11-30T10:06:10.105Z,36.97
2022-11-30T10:08:51.177Z,38.03
2022-11-30T10:11:49.023Z,40.60
2022-11-30T10:14:32.258Z,34.92
2022-11-30T10:17:12.343Z,35.53
2022-11-30T10:19:56.179Z,38.75
2022-11-30T10:22:33.847Z,37.00
2022-11-30T10:25:13.908Z,38.72
2022-11-30T10:27:51.334Z,35.97
2022-11-30T10:30:22.367Z,39.40
2022-11-30T10:32:54.135Z,40.25
2022-11-30T10:35:30.038Z,40.75
2022-11-30T10:38:01.435Z,37.25
2022-11-30T10:40:38.456Z,38.53
2022-11-30T10:43:18.556Z,43.20
2022-11-30T10:45:50.441Z,38.72
2022-11-30T10:48:25.444Z,38.42
2022-11-30T10:50:55.138Z,43.97
2022-11-30T10:53:24.413Z,38.33
2022-11-30T10:55:59.883Z,40.97
2022-11-30T10:58:33.803Z,43.55
2022-11-30T11:01:06.222Z,46.78
2022-11-30T11:03:35.427Z,43.88
2022-11-30T11:06:12.225Z,41.72
2022-11-30T11:08:45.293Z,40.67
2022-11-30T11:11:34.390Z,44.85
2022-11-30T11:14:17.323Z,44.65
2022-11-30T11:16:54.936Z,45.90
2022-11-30T11:19:26.003Z,44.53
2022-11-30T11:21:54.830Z,48.25
2022-11-30T11:24:27.860Z,49.28
2022-11-30T11:26:58.152Z,44.58
2022-11-30T11:29:34.939Z,49.42
2022-11-30T11:32:19.886Z,46.13
2022-11-30T11:34:51.305Z,49.85
2022-11-30T11:37:26.295Z,46.40
2022-11-30T11:40:04.032Z,47.08
2022-11-30T11:42:36.942Z,47.05
2022-11-30T11:45:16.050Z,54.63
2022-11-30T11:47:45.995Z,52.08
2022-11-30T11:53:23.985Z,48.63
2022-11-30T11:55:57.407Z,47.25
2022-11-30T11:58:42.479Z,52.85
2022-11-30T12:04:40.089Z,52.17
2022-11-30T12:07:19.266Z,46.50
2022-11-30T12:10:21.849Z,49.70
2022-11-30T12:12:55.278Z,48.83
2022-11-30T12:15:29.523Z,53.83
2022-11-30T12:18:07.722Z,47.83
2022-11-30T12:20:53.291Z,46.33
2022-11-30T12:23:38.716Z,47.78
2022-11-30T12:26:13.644Z,50.90
2022-11-30T12:28:52.610Z,53.88
2022-11-30T12:31:21.972Z,52.72
2022-11-30T12:34:07.201Z,48.17
2022-11-30T12:36:50.040Z,51.05
2022-11-30T12:39:29.847Z,53.33
2022-11-30T12:42:02.380Z,52.42
2022-11-30T12:44:42.526Z,55.63
2022-11-30T12:47:27.934Z,52.22
2022-11-30T12:50:20.083Z,49.42
2022-11-30T12:52:58.167Z,53.80
2022-11-30T12:55:34.983Z,54.22
2022-11-30T12:58:12.443Z,51.85
2022-11-30T13:00:52.945Z,55.03
2022-11-30T13:03:45.261Z,54.10
2022-11-30T13:06:19.287Z,52.95
2022-11-30T13:08:58.100Z,57.78
2022-11-30T13:11:33.111Z,56.83
2022-11-30T13:14:02.216Z,53.00
2022-11-30T13:16:32.526Z,57.58
2022-11-30T13:19:11.597Z,53.88
2022-11-30T13:21:50.176Z,60.22
2022-11-30T13:24:28.792Z,56.22
2022-11-30T13:27:01.830Z,57.95
2022-11-30T13:30:04.069Z,55.55
2022-11-30T13:32:57.423Z,51.08
2022-11-30T13:35:45.509Z,57.80
2022-11-30T13:38:37.767Z,58.83
2022-11-30T13:41:09.253Z,57.90
2022-11-30T13:43:44.814Z,61.38
2022-11-30T13:46:19.768Z,58.30
2022-11-30T13:48:48.840Z,59.10
2022-11-30T13:51:34.811Z,54.45
2022-11-30T13:54:36.751Z,58.15
2022-11-30T13:57:18.135Z,62.40
2022-11-30T13:59:49.240Z,60.45
2022-11-30T14:05:41.821Z,56.42
2022-11-30T14:08:38.388Z,66.13
2022-11-30T14:11:39.027Z,56.22
2022-11-30T14:14:47.416Z,63.30
2022-11-30T14:17:22.191Z,65.50
2022-11-30T14:19:53.246Z,53.38
2022-11-30T14:22:23.084Z,62.30
2022-11-30T14:24:51.887Z,58.30
2022-11-30T14:27:23.858Z,60.78
2022-11-30T14:29:57.975Z,60.85
2022-11-30T14:32:37.857Z,57.13
2022-11-30T14:35:12.755Z,61.67
2022-11-30T14:37:46.940Z,61.13
2022-11-30T14:40:19.162Z,60.30
2022-11-30T14:42:50.466Z,56.40
2022-11-30T14:45:25.484Z,57.30
2022-11-30T14:48:04.924Z,62.58
2022-11-30T14:50:34.069Z,55.78
2022-11-30T14:53:19.021Z,59.45
2022-11-30T14:55:52.666Z,61.40
2022-11-30T14:58:27.837Z,62.63
2022-11-30T15:00:59.411Z,60.25
2022-11-30T15:03:33.549Z,61.72
2022-11-30T15:06:06.469Z,60.20
2022-11-30T15:08:38.718Z,61.90
2022-11-30T15:11:09.967Z,56.85
2022-11-30T15:13:42.384Z,62.95
2022-11-30T15:16:19.551Z,69.07
2022-11-30T15:18:48.682Z,67.03
2022-11-30T15:21:21.542Z,64.25
2022-11-30T15:23:51.570Z,59.80
2022-11-30T15:26:25.574Z,63.00
2022-11-30T15:28:58.234Z,64.32
2022-11-30T15:31:34.586Z,59.00
2022-11-30T15:34:03.815Z,59.20
2022-11-30T15:36:35.605Z,56.65
2022-11-30T15:39:06.618Z,59.22
2022-11-30T15:41:36.494Z,55.03
2022-11-30T15:44:05.156Z,53.33
2022-11-30T15:46:42.765Z,51.20
2022-11-30T15:49:18.061Z,56.90
2022-11-30T15:51:53.181Z,52.13
2022-11-30T15:54:48.014Z,52.28
2022-11-30T15:57:17.211Z,56.38
2022-11-30T16:00:03.911Z,55.85
2022-11-30T16:02:37.107Z,52.92
2022-11-30T16:05:24.364Z,54.85
2022-11-30T16:07:55.517Z,47.80
2022-11-30T16:10:26.690Z,48.72
2022-11-30T16:12:55.995Z,50.33
2022-11-30T16:15:26.287Z,53.88
2022-11-30T16:17:59.517Z,52.38
2022-11-30T16:20:28.315Z,54.35
2022-11-30T16:22:59.965Z,47.28
2022-11-30T16:25:32.633Z,50.50
2022-11-30T16:28:02.564Z,47.53
2022-11-30T16:30:31.642Z,48.65
2022-11-30T16:33:01.531Z,53.08
2022-11-30T16:35:36.249Z,55.17
2022-11-30T16:38:05.356Z,53.80
2022-11-30T16:40:38.842Z,50.20
2022-11-30T16:43:08.082Z,48.58
2022-11-30T16:45:38.088Z,49.55
2022-11-30T16:48:08.587Z,47.65
2022-11-30T16:50:37.998Z,54.60
2022-11-30T16:53:06.813Z,47.78
2022-11-30T16:55:40.137Z,50.58
2022-11-30T16:58:08.669Z,50.35
2022-11-30T17:00:39.466Z,52.10
2022-11-30T17:03:18.968Z,47.15
2022-11-30T17:05:47.922Z,53.60
2022-11-30T17:08:16.529Z,48.67
2022-11-30T17:10:45.076Z,54.15
2022-11-30T17:13:15.660Z,46.75
2022-11-30T17:15:44.796Z,55.90
2022-11-30T17:18:14.699Z,51.85
2022-11-30T17:20:43.425Z,54.47
2022-11-30T17:23:12.018Z,58.05
2022-11-30T17:25:40.536Z,54.97
2022-11-30T17:28:09.151Z,52.70
2022-11-30T17:30:37.814Z,54.88
2022-11-30T17:33:06.394Z,49.05
2022-11-30T17:35:39.814Z,48.75
2022-11-30T17:38:08.521Z,48.13
2022-11-30T17:40:41.748Z,49.75
2022-11-30T17:43:10.252Z,55.97
2022-11-30T17:45:40.406Z,51.97
2022-11-30T17:48:08.912Z,49.83
2022-11-30T17:50:40.603Z,57.30
2022-11-30T17:53:12.982Z,51.25
2022-11-30T17:55:43.967Z,58.25
2022-11-30T17:58:12.400Z,56.25
2022-11-30T18:00:40.990Z,52.88
2022-11-30T18:03:09.497Z,49.15
2022-11-30T18:05:38.016Z,59.03
2022-11-30T18:08:07.863Z,73.88
2022-11-30T18:10:40.559Z,65.80
2022-11-30T18:13:09.304Z,54.95
2022-11-30T18:15:37.865Z,54.90
2022-11-30T18:18:06.380Z,50.13
2022-11-30T18:20:35.118Z,51.22
2022-11-30T18:23:04.609Z,51.92
2022-11-30T18:25:35.260Z,47.67
2022-11-30T18:28:04.199Z,44.47
2022-11-30T18:30:32.739Z,46.88
2022-11-30T18:33:01.897Z,40.28
2022-11-30T18:35:30.435Z,41.13
2022-11-30T18:37:58.876Z,44.42
2022-11-30T18:40:27.376Z,38.40
2022-11-30T18:42:57.251Z,39.25
2022-11-30T18:45:25.784Z,38.08
2022-11-30T18:47:54.283Z,37.60
2022-11-30T18:50:22.847Z,38.65
2022-11-30T18:52:51.638Z,42.58
2022-11-30T18:55:20.187Z,40.97
2022-11-30T18:57:48.782Z,41.50
2022-11-30T19:00:19.694Z,41.22
2022-11-30T19:02:49.252Z,43.28
2022-11-30T19:08:15.651Z,42.88
2022-11-30T19:10:44.350Z,34.92
2022-11-30T19:13:12.844Z,39.22
2022-11-30T19:15:42.635Z,36.53
2022-11-30T19:18:11.958Z,33.83
2022-11-30T19:20:40.982Z,33.90
2022-11-30T19:23:10.977Z,39.25
2022-11-30T19:25:39.702Z,33.97
2022-11-30T19:28:08.252Z,34.05
2022-11-30T19:30:36.750Z,35.53
2022-11-30T19:33:05.378Z,31.83
2022-11-30T19:35:33.891Z,36.72
2022-11-30T19:38:03.130Z,39.85
2022-11-30T19:40:33.251Z,39.15
2022-11-30T19:43:01.934Z,34.60
2022-11-30T19:45:30.429Z,40.33
2022-11-30T19:47:58.879Z,40.75
2022-11-30T19:50:27.395Z,38.85
2022-11-30T19:52:56.025Z,40.90
2022-11-30T19:55:24.565Z,36.83
2022-11-30T19:57:54.386Z,33.33
2022-11-30T20:00:23.105Z,38.67
2022-11-30T20:02:51.645Z,40.92
2022-11-30T20:05:20.263Z,42.25
2022-11-30T20:07:48.770Z,38.17
2022-11-30T20:10:17.387Z,37.60
2022-11-30T20:12:45.928Z,33.83
2022-11-30T20:15:15.830Z,35.38
2022-11-30T20:17:44.318Z,35.63
2022-11-30T20:20:13.759Z,35.17
2022-11-30T20:22:42.226Z,38.50
2022-11-30T20:25:11.015Z,31.85
2022-11-30T20:27:39.540Z,33.25
2022-11-30T20:30:09.123Z,35.35
2022-11-30T20:32:42.305Z,32.50
2022-11-30T20:35:11.451Z,33.75
2022-11-30T20:37:39.981Z,32.38
2022-11-30T20:40:09.945Z,34.20
2022-11-30T20:42:38.448Z,34.17
2022-11-30T20:45:07.931Z,31.77
2022-11-30T20:47:37.776Z,32.25
2022-11-30T20:50:07.411Z,29.10
2022-11-30T20:52:35.940Z,32.30
2022-11-30T20:55:04.808Z,29.40
2022-11-30T20:57:33.292Z,29.52
2022-11-30T21:00:01.746Z,30.10
2022-11-30T21:02:30.324Z,27.13
2022-11-30T21:05:00.239Z,27.73
2022-11-30T21:07:28.848Z,27.27
2022-11-30T21:09:58.468Z,22.05
2022-11-30T21:12:26.994Z,23.50
2022-11-30T21:14:55.547Z,18.05
2022-11-30T21:17:24.113Z,18.65
2022-11-30T21:19:52.645Z,18.00
2022-11-30T21:22:22.528Z,18.23
2022-11-30T21:24:51.217Z,14.48
2022-11-30T21:27:19.711Z,17.08
2022-11-30T21:29:48.269Z,15.95
2022-11-30T21:32:16.819Z,16.58
2022-11-30T21:34:45.393Z,19.58
2022-11-30T21:37:13.976Z,16.98
2022-11-30T21:39:43.876Z,15.45
2022-11-30T21:42:12.405Z,16.55
2022-11-30T21:44:40.963Z,18.08
2022-11-30T21:47:11.976Z,15.85
2022-11-30T21:49:40.488Z,15.25
2022-11-30T21:52:09.002Z,15.57
2022-11-30T21:54:37.583Z,20.73
2022-11-30T21:57:07.660Z,19.98
2022-11-30T21:59:36.197Z,17.15
2022-11-30T22:02:04.717Z,19.27
2022-11-30T22:04:37.971Z,18.52
2022-11-30T22:07:07.066Z,21.10
2022-11-30T22:09:35.524Z,17.52
2022-11-30T22:12:04.352Z,19.08
2022-11-30T22:14:36.195Z,17.90
2022-11-30T22:17:04.744Z,17.95
2022-11-30T22:19:33.250Z,18.00
2022-11-30T22:22:01.743Z,17.30
2022-11-30T22:24:30.191Z,16.13
2022-11-30T22:26:58.684Z,19.48
2022-11-30T22:29:27.842Z,19.52
2022-11-30T22:31:57.741Z,19.17
2022-11-30T22:34:26.437Z,20.30
2022-11-30T22:36:54.940Z,18.73
2022-11-30T22:39:23.514Z,17.25
2022-11-30T22:41:56.144Z,18.77
2022-11-30T22:44:26.361Z,16.90
2022-11-30T22:46:54.987Z,20.98
2022-11-30T22:49:25.100Z,17.33
2022-11-30T22:51:53.676Z,18.70
2022-11-30T22:54:22.177Z,19.08
2022-11-30T22:56:50.641Z,17.15
2022-11-30T22:59:19.441Z,18.95
2022-11-30T23:01:49.688Z,22.10
2022-11-30T23:04:19.990Z,17.20
2022-11-30T23:06:50.677Z,15.98
2022-11-30T23:09:21.246Z,16.20
2022-11-30T23:11:50.282Z,16.50
2022-11-30T23:14:19.518Z,16.08
2022-11-30T23:16:48.517Z,17.45
2022-11-30T23:19:18.068Z,17.10
2022-11-30T23:21:46.738Z,16.40
2022-11-30T23:24:20.462Z,17.67
2022-11-30T23:26:49.408Z,15.18
2022-11-30T23:29:18.583Z,12.52
2022-11-30T23:31:48.201Z,13.38
2022-11-30T23:34:19.071Z,13.90
2022-11-30T23:36:49.459Z,12.68
2022-11-30T23:39:20.653Z,14.20
2022-11-30T23:41:49.387Z,17.50
2022-11-30T23:44:18.120Z,14.57
2022-11-30T23:46:47.076Z,11.90
2022-11-30T23:49:15.824Z,12.30
2022-11-30T23:51:44.551Z,13.02
2022-11-30T23:54:13.132Z,14.23
2022-11-30T23:56:43.100Z,14.00
2022-11-30T23:59:11.676Z,14.50
